Time;durP1;ratioP1;P1;durP2;ratioP2;P2;SDS_P1;SDS_P2;PMS_P1;PMS_P2;Temp;Humidity;BMP_temperature;BMP_pressure;BME280_temperature;BME280_humidity;BME280_pressure;Samples;Min_cycle;Max_cycle;Signal;HPM_P1;HPM_P2
2022/03/09 00:01:46;;;;;;;14.87;10.30;;;;;;;;;;5031451;28;20243;-73
2022/03/09 00:04:14;;;;;;;20.40;11.23;;;;;;;;;;5036083;28;20242;-73
2022/03/09 00:06:42;;;;;;;17.17;10.70;;;;;;;;;;5035727;28;20292;-73
2022/03/09 00:09:11;;;;;;;16.43;11.03;;;;;;;;;;5038781;28;20210;-73
2022/03/09 00:11:39;;;;;;;16.50;10.90;;;;;;;;;;5036220;28;20299;-73
2022/03/09 00:14:07;;;;;;;15.50;10.33;;;;;;;;;;5038362;28;20314;-73
2022/03/09 00:16:37;;;;;;;17.07;10.87;;;;;;;;;;5038809;28;20306;-73
2022/03/09 00:19:09;;;;;;;17.50;11.67;;;;;;;;;;5038786;28;20284;-73
2022/03/09 00:21:37;;;;;;;16.90;10.90;;;;;;;;;;5035908;28;20630;-73
2022/03/09 00:24:06;;;;;;;18.97;11.67;;;;;;;;;;5038227;28;20230;-73
2022/03/09 00:26:34;;;;;;;15.03;10.33;;;;;;;;;;5038354;28;20258;-73
2022/03/09 00:29:02;;;;;;;18.03;11.77;;;;;;;;;;5035165;28;20199;-73
2022/03/09 00:31:31;;;;;;;15.97;10.93;;;;;;;;;;5038650;28;20267;-73
2022/03/09 00:34:00;;;;;;;18.17;11.53;;;;;;;;;;5035469;28;20258;-73
2022/03/09 00:36:28;;;;;;;19.20;11.13;;;;;;;;;;5038210;28;20306;-73
2022/03/09 00:38:57;;;;;;;20.20;12.00;;;;;;;;;;5035796;28;20238;-73
2022/03/09 00:41:25;;;;;;;18.70;11.27;;;;;;;;;;5037688;28;20243;-73
2022/03/09 00:43:53;;;;;;;15.90;11.17;;;;;;;;;;5037969;28;20282;-73
2022/03/09 00:46:21;;;;;;;18.17;12.17;;;;;;;;;;5035022;28;20239;-73
2022/03/09 00:48:49;;;;;;;16.77;11.73;;;;;;;;;;5038652;28;20204;-73
2022/03/09 00:51:18;;;;;;;19.50;11.40;;;;;;;;;;5034798;28;20231;-73
2022/03/09 00:53:46;;;;;;;16.60;10.70;;;;;;;;;;5037843;28;20730;-73
2022/03/09 00:56:15;;;;;;;17.93;11.40;;;;;;;;;;5035331;28;20224;-73
2022/03/09 00:58:43;;;;;;;20.27;11.30;;;;;;;;;;5037836;28;20238;-73
2022/03/09 01:01:11;;;;;;;16.20;10.70;;;;;;;;;;5035172;28;20231;-73
2022/03/09 01:03:40;;;;;;;17.63;11.40;;;;;;;;;;5037935;28;20208;-73
2022/03/09 01:06:08;;;;;;;14.23;10.67;;;;;;;;;;5034529;28;20262;-73
2022/03/09 01:08:38;;;;;;;19.63;10.80;;;;;;;;;;5038119;28;20203;-73
2022/03/09 01:11:06;;;;;;;16.37;10.37;;;;;;;;;;5030394;28;20748;-73
2022/03/09 01:13:34;;;;;;;16.03;10.67;;;;;;;;;;5038502;28;20231;-73
2022/03/09 01:16:02;;;;;;;17.20;10.93;;;;;;;;;;5039383;28;20252;-73
2022/03/09 01:18:31;;;;;;;18.43;11.07;;;;;;;;;;5039629;28;20215;-73
2022/03/09 01:20:59;;;;;;;17.43;11.87;;;;;;;;;;5041451;28;20289;-73
2022/03/09 01:23:27;;;;;;;18.43;11.20;;;;;;;;;;5037467;28;20287;-73
2022/03/09 01:25:56;;;;;;;20.30;12.30;;;;;;;;;;5037499;28;20758;-73
2022/03/09 01:28:24;;;;;;;21.93;11.77;;;;;;;;;;5045154;28;20241;-73
2022/03/09 01:30:52;;;;;;;19.93;11.83;;;;;;;;;;5038992;28;20232;-73
2022/03/09 01:33:20;;;;;;;20.50;11.57;;;;;;;;;;5037257;28;20294;-73
2022/03/09 01:35:50;;;;;;;16.83;11.43;;;;;;;;;;5037528;28;20216;-73
2022/03/09 01:38:18;;;;;;;16.73;10.93;;;;;;;;;;5039066;28;20232;-72
2022/03/09 01:40:46;;;;;;;20.03;12.57;;;;;;;;;;5029916;28;20278;-73
2022/03/09 01:43:16;;;;;;;15.97;11.07;;;;;;;;;;5038243;28;20266;-74
2022/03/09 01:45:44;;;;;;;18.20;10.77;;;;;;;;;;5039229;28;20319;-73
2022/03/09 01:48:12;;;;;;;19.27;12.40;;;;;;;;;;5040511;28;20644;-74
2022/03/09 01:50:40;;;;;;;17.17;11.47;;;;;;;;;;5036261;28;20219;-74
2022/03/09 01:53:08;;;;;;;21.27;12.67;;;;;;;;;;5036213;28;20632;-74
2022/03/09 01:55:37;;;;;;;18.50;12.17;;;;;;;;;;5039636;28;20226;-73
2022/03/09 01:58:05;;;;;;;19.00;11.30;;;;;;;;;;5041205;28;20319;-74
2022/03/09 02:00:34;;;;;;;15.77;11.27;;;;;;;;;;5027664;28;20279;-72
2022/03/09 02:03:03;;;;;;;17.53;11.03;;;;;;;;;;5042246;28;20195;-75
2022/03/09 02:05:31;;;;;;;18.83;11.40;;;;;;;;;;5038187;28;20216;-74
2022/03/09 02:10:45;;;;;;;17.83;11.00;;;;;;;;;;5038059;28;20283;-71
2022/03/09 02:13:13;;;;;;;14.77;9.97;;;;;;;;;;5029525;28;20266;-74
2022/03/09 02:15:44;;;;;;;16.60;11.77;;;;;;;;;;5035283;28;20781;-70
2022/03/09 02:18:12;;;;;;;15.77;10.97;;;;;;;;;;5036012;28;20200;-74
2022/03/09 02:20:43;;;;;;;16.77;11.13;;;;;;;;;;5035575;28;20726;-75
2022/03/09 02:23:12;;;;;;;19.67;12.43;;;;;;;;;;5029931;28;20230;-74
2022/03/09 02:25:40;;;;;;;21.30;11.30;;;;;;;;;;5033026;28;20266;-73
2022/03/09 02:28:08;;;;;;;15.73;10.63;;;;;;;;;;5032774;28;20314;-73
2022/03/09 02:30:36;;;;;;;17.13;10.90;;;;;;;;;;5032561;28;20227;-72
2022/03/09 02:33:06;;;;;;;17.73;11.50;;;;;;;;;;5036020;28;20717;-72
2022/03/09 02:35:34;;;;;;;16.20;10.80;;;;;;;;;;5034105;28;20251;-73
2022/03/09 02:38:02;;;;;;;16.97;11.07;;;;;;;;;;5033100;28;20272;-73
2022/03/09 02:40:31;;;;;;;17.40;11.27;;;;;;;;;;5031985;28;20287;-73
2022/03/09 02:42:59;;;;;;;19.93;12.20;;;;;;;;;;5032971;28;20203;-74
2022/03/09 02:45:27;;;;;;;16.93;11.17;;;;;;;;;;5035806;28;20327;-73
2022/03/09 02:47:56;;;;;;;16.57;11.50;;;;;;;;;;5035849;28;20220;-74
2022/03/09 02:50:24;;;;;;;15.07;10.70;;;;;;;;;;5034022;28;20614;-68
2022/03/09 02:52:52;;;;;;;17.13;10.70;;;;;;;;;;5034063;28;20862;-72
2022/03/09 02:55:20;;;;;;;16.53;11.30;;;;;;;;;;5032159;28;20674;-73
2022/03/09 02:57:49;;;;;;;20.53;10.90;;;;;;;;;;5033947;28;20226;-74
2022/03/09 03:00:17;;;;;;;20.40;12.53;;;;;;;;;;5033211;28;20287;-74
2022/03/09 03:02:45;;;;;;;19.33;12.10;;;;;;;;;;5034857;28;20259;-74
2022/03/09 03:05:13;;;;;;;22.97;10.90;;;;;;;;;;5032362;28;20281;-74
2022/03/09 03:07:44;;;;;;;17.63;11.70;;;;;;;;;;5038332;28;20227;-74
2022/03/09 03:10:12;;;;;;;20.07;12.37;;;;;;;;;;5039315;28;20551;-74
2022/03/09 03:12:40;;;;;;;18.07;11.27;;;;;;;;;;5034485;28;20327;-74
2022/03/09 03:15:10;;;;;;;17.67;11.83;;;;;;;;;;5039836;28;20231;-74
2022/03/09 03:17:38;;;;;;;19.50;12.37;;;;;;;;;;5036832;28;20231;-74
2022/03/09 03:20:07;;;;;;;18.53;11.83;;;;;;;;;;5038557;28;20470;-74
2022/03/09 03:22:34;;;;;;;18.77;12.70;;;;;;;;;;5039964;28;20485;-74
2022/03/09 03:25:03;;;;;;;18.43;11.03;;;;;;;;;;5039324;28;20636;-74
2022/03/09 03:27:31;;;;;;;20.30;12.73;;;;;;;;;;5039365;28;20566;-73
2022/03/09 03:29:58;;;;;;;20.60;13.23;;;;;;;;;;5038085;28;21037;-74
2022/03/09 03:32:28;;;;;;;23.70;13.30;;;;;;;;;;5033552;28;20482;-73
2022/03/09 03:34:56;;;;;;;20.13;12.97;;;;;;;;;;5033567;28;20454;-74
2022/03/09 03:37:24;;;;;;;24.53;13.10;;;;;;;;;;5039699;28;20890;-74
2022/03/09 03:39:53;;;;;;;19.73;11.90;;;;;;;;;;5032399;28;20443;-74
2022/03/09 03:42:21;;;;;;;19.73;12.77;;;;;;;;;;5028816;28;20481;-74
2022/03/09 03:44:49;;;;;;;19.90;12.63;;;;;;;;;;5039053;28;20870;-74
2022/03/09 03:47:17;;;;;;;19.73;12.80;;;;;;;;;;5038970;28;20489;-74
2022/03/09 03:49:47;;;;;;;19.43;13.10;;;;;;;;;;5036772;28;20481;-73
2022/03/09 03:52:14;;;;;;;20.00;11.77;;;;;;;;;;5038765;28;20491;-74
2022/03/09 03:54:42;;;;;;;19.83;12.37;;;;;;;;;;5039271;28;20534;-74
2022/03/09 03:57:10;;;;;;;21.73;12.37;;;;;;;;;;5035971;28;20509;-74
2022/03/09 03:59:38;;;;;;;23.30;12.50;;;;;;;;;;5038381;28;20985;-74
2022/03/09 04:02:06;;;;;;;19.67;13.23;;;;;;;;;;5039257;28;20962;-74
2022/03/09 04:04:35;;;;;;;21.03;12.57;;;;;;;;;;5035812;28;20446;-73
2022/03/09 04:07:04;;;;;;;17.23;12.07;;;;;;;;;;5035865;28;21069;-74
2022/03/09 04:09:32;;;;;;;19.67;12.23;;;;;;;;;;5035596;28;21034;-73
2022/03/09 04:12:01;;;;;;;19.47;12.57;;;;;;;;;;5039422;28;20451;-74
2022/03/09 04:14:30;;;;;;;19.83;12.80;;;;;;;;;;5038536;28;20489;-74
2022/03/09 04:16:58;;;;;;;19.60;12.43;;;;;;;;;;5037437;28;20556;-74
2022/03/09 04:19:26;;;;;;;19.07;12.07;;;;;;;;;;5038805;28;20962;-74
2022/03/09 04:21:54;;;;;;;22.13;13.27;;;;;;;;;;5038275;28;20512;-74
2022/03/09 04:24:23;;;;;;;24.27;12.97;;;;;;;;;;5036299;28;20488;-74
2022/03/09 04:26:51;;;;;;;19.67;12.60;;;;;;;;;;5035023;28;20557;-74
2022/03/09 04:29:19;;;;;;;20.43;13.07;;;;;;;;;;5039594;28;20474;-74
2022/03/09 04:31:47;;;;;;;21.13;12.57;;;;;;;;;;5039404;28;20525;-74
2022/03/09 04:34:15;;;;;;;23.17;12.40;;;;;;;;;;5035891;28;20458;-74
2022/03/09 04:36:43;;;;;;;19.77;12.67;;;;;;;;;;5035722;28;20514;-74
2022/03/09 04:39:11;;;;;;;20.33;12.60;;;;;;;;;;5038455;28;20964;-74
2022/03/09 04:41:41;;;;;;;20.87;12.50;;;;;;;;;;5035034;28;20879;-74
2022/03/09 04:44:11;;;;;;;17.57;12.10;;;;;;;;;;5034587;28;20545;-74
2022/03/09 04:46:39;;;;;;;21.13;12.20;;;;;;;;;;5038697;28;20503;-74
2022/03/09 04:49:07;;;;;;;19.67;12.93;;;;;;;;;;5034955;28;20834;-74
2022/03/09 04:51:36;;;;;;;19.87;13.07;;;;;;;;;;5037995;28;20446;-74
2022/03/09 04:54:04;;;;;;;20.40;13.00;;;;;;;;;;5034941;28;20483;-74
2022/03/09 04:56:32;;;;;;;20.73;12.77;;;;;;;;;;5038230;28;20502;-73
2022/03/09 04:59:02;;;;;;;18.53;12.80;;;;;;;;;;5037423;28;20887;-73
2022/03/09 05:01:30;;;;;;;15.70;11.80;;;;;;;;;;5033581;28;20893;-74
2022/03/09 05:03:58;;;;;;;21.83;12.43;;;;;;;;;;5024052;28;20942;-73
2022/03/09 05:06:26;;;;;;;19.40;13.03;;;;;;;;;;5029759;28;20892;-73
2022/03/09 05:08:54;;;;;;;22.90;12.80;;;;;;;;;;5032315;28;20573;-73
2022/03/09 05:11:23;;;;;;;17.00;12.23;;;;;;;;;;5036928;28;20533;-73
2022/03/09 05:13:51;;;;;;;20.10;12.43;;;;;;;;;;5036089;28;20562;-73
2022/03/09 05:16:21;;;;;;;22.77;13.40;;;;;;;;;;5035920;28;20517;-74
2022/03/09 05:18:49;;;;;;;24.13;13.73;;;;;;;;;;5037181;28;20969;-73
2022/03/09 05:21:17;;;;;;;21.23;14.17;;;;;;;;;;5029695;28;20538;-74
2022/03/09 05:23:45;;;;;;;18.10;12.30;;;;;;;;;;5037561;28;20529;-73
2022/03/09 05:26:13;;;;;;;18.57;12.23;;;;;;;;;;5036863;28;20481;-74
2022/03/09 05:28:41;;;;;;;20.73;14.07;;;;;;;;;;5037391;28;20517;-74
2022/03/09 05:31:09;;;;;;;20.00;12.60;;;;;;;;;;5034417;28;20994;-73
2022/03/09 05:33:41;;;;;;;21.03;13.17;;;;;;;;;;5029627;28;20454;-73
2022/03/09 05:36:09;;;;;;;18.40;12.53;;;;;;;;;;5031162;28;20505;-74
2022/03/09 05:38:40;;;;;;;22.10;13.50;;;;;;;;;;5037248;28;20442;-73
2022/03/09 05:41:08;;;;;;;19.20;12.63;;;;;;;;;;5037265;28;21002;-73
2022/03/09 05:43:36;;;;;;;21.70;13.30;;;;;;;;;;5036880;28;20981;-74
2022/03/09 05:46:04;;;;;;;23.13;13.43;;;;;;;;;;5034978;28;21056;-65
2022/03/09 05:48:33;;;;;;;18.07;12.53;;;;;;;;;;5033404;28;20482;-64
2022/03/09 05:51:02;;;;;;;23.87;14.10;;;;;;;;;;5035542;28;20480;-65
2022/03/09 05:53:30;;;;;;;22.97;14.33;;;;;;;;;;5035669;28;20442;-65
2022/03/09 05:55:58;;;;;;;25.83;14.57;;;;;;;;;;5033574;28;21048;-65
2022/03/09 05:58:26;;;;;;;20.20;13.53;;;;;;;;;;5037097;28;20446;-65
2022/03/09 06:00:54;;;;;;;22.20;13.13;;;;;;;;;;5031184;28;20512;-65
2022/03/09 06:03:22;;;;;;;19.87;13.70;;;;;;;;;;5031940;28;20450;-65
2022/03/09 06:05:51;;;;;;;22.20;13.80;;;;;;;;;;5036457;28;20508;-65
2022/03/09 06:08:20;;;;;;;25.60;13.60;;;;;;;;;;5033417;28;21028;-65
2022/03/09 06:10:49;;;;;;;20.30;14.03;;;;;;;;;;5036899;28;20496;-65
2022/03/09 06:13:17;;;;;;;21.43;12.90;;;;;;;;;;5035871;28;20506;-65
2022/03/09 06:15:45;;;;;;;22.33;12.97;;;;;;;;;;5028362;28;20895;-67
2022/03/09 06:18:13;;;;;;;24.73;13.47;;;;;;;;;;5034024;28;20529;-65
2022/03/09 06:20:42;;;;;;;20.60;13.93;;;;;;;;;;5033814;28;20454;-65
2022/03/09 06:23:14;;;;;;;19.13;12.77;;;;;;;;;;5036269;28;20442;-65
2022/03/09 06:25:43;;;;;;;18.27;11.80;;;;;;;;;;5032384;28;20475;-65
2022/03/09 06:28:11;;;;;;;21.60;13.23;;;;;;;;;;5034180;28;20877;-65
2022/03/09 06:30:39;;;;;;;20.17;13.20;;;;;;;;;;5029020;28;20538;-65
2022/03/09 06:33:07;;;;;;;21.90;14.33;;;;;;;;;;5031222;28;20529;-65
2022/03/09 06:35:35;;;;;;;23.50;13.07;;;;;;;;;;5032906;28;20501;-64
2022/03/09 06:38:08;;;;;;;24.13;14.07;;;;;;;;;;5033455;28;20469;-65
2022/03/09 06:40:36;;;;;;;22.10;12.77;;;;;;;;;;5037441;28;20512;-72
2022/03/09 06:43:05;;;;;;;21.13;14.27;;;;;;;;;;5038967;28;20525;-73
2022/03/09 06:45:34;;;;;;;20.33;13.20;;;;;;;;;;5040296;28;20500;-72
2022/03/09 06:48:02;;;;;;;23.13;14.30;;;;;;;;;;5038508;28;20984;-73
2022/03/09 06:50:30;;;;;;;21.03;13.63;;;;;;;;;;5036578;28;20557;-72
2022/03/09 06:52:58;;;;;;;25.57;14.20;;;;;;;;;;5038780;28;20474;-72
2022/03/09 06:55:26;;;;;;;21.63;13.77;;;;;;;;;;5039118;28;20505;-72
2022/03/09 06:57:54;;;;;;;23.50;13.53;;;;;;;;;;5038923;28;20446;-72
2022/03/09 07:00:24;;;;;;;22.07;14.07;;;;;;;;;;5037332;28;20496;-72
2022/03/09 07:02:52;;;;;;;22.07;14.03;;;;;;;;;;5037269;28;20564;-75
2022/03/09 07:05:20;;;;;;;19.93;14.27;;;;;;;;;;5036830;28;20474;-74
2022/03/09 07:07:48;;;;;;;26.27;14.97;;;;;;;;;;5035875;28;20548;-75
2022/03/09 07:10:16;;;;;;;21.73;14.27;;;;;;;;;;5037310;28;20918;-74
2022/03/09 07:12:45;;;;;;;21.30;14.30;;;;;;;;;;5034190;28;20514;-74
2022/03/09 07:15:14;;;;;;;23.60;14.87;;;;;;;;;;5037386;28;20985;-74
2022/03/09 07:17:43;;;;;;;19.90;12.73;;;;;;;;;;5031125;28;20477;-73
2022/03/09 07:20:12;;;;;;;23.23;14.10;;;;;;;;;;5034120;28;20526;-73
2022/03/09 07:22:43;;;;;;;20.43;14.83;;;;;;;;;;5033477;28;20813;-74
2022/03/09 07:25:11;;;;;;;23.67;13.20;;;;;;;;;;5039260;28;20529;-74
2022/03/09 07:27:39;;;;;;;21.63;15.03;;;;;;;;;;5039361;28;20485;-74
2022/03/09 07:30:08;;;;;;;18.53;12.50;;;;;;;;;;5038941;28;20524;-74
2022/03/09 07:32:36;;;;;;;18.93;11.83;;;;;;;;;;5036009;28;20486;-74
2022/03/09 07:35:23;;;;;;;25.13;13.80;;;;;;;;;;5032749;28;20679;-66
2022/03/09 07:37:52;;;;;;;24.83;14.37;;;;;;;;;;5031890;28;20760;-66
2022/03/09 07:40:21;;;;;;;19.57;12.73;;;;;;;;;;5037847;28;20200;-65
2022/03/09 07:42:49;;;;;;;22.63;13.40;;;;;;;;;;5037600;28;20269;-66
2022/03/09 07:45:22;;;;;;;22.87;13.50;;;;;;;;;;5033860;28;20223;-66
2022/03/09 07:47:50;;;;;;;20.77;13.17;;;;;;;;;;5039456;28;20234;-66
2022/03/09 07:50:18;;;;;;;19.87;12.73;;;;;;;;;;5037213;28;20584;-66
2022/03/09 07:52:48;;;;;;;17.83;12.87;;;;;;;;;;5035990;28;20763;-66
2022/03/09 07:55:16;;;;;;;20.40;13.17;;;;;;;;;;5038612;28;20386;-66
2022/03/09 07:57:44;;;;;;;19.50;13.37;;;;;;;;;;5038427;28;20234;-65
2022/03/09 08:00:13;;;;;;;19.50;13.20;;;;;;;;;;5038282;28;20287;-67
2022/03/09 08:02:41;;;;;;;20.43;13.77;;;;;;;;;;5038413;28;20290;-74
2022/03/09 08:05:10;;;;;;;22.90;15.00;;;;;;;;;;5044679;28;20290;-73
2022/03/09 08:07:38;;;;;;;25.27;14.30;;;;;;;;;;5038361;28;20239;-74
2022/03/09 08:10:10;;;;;;;21.23;13.07;;;;;;;;;;5038234;28;20232;-73
2022/03/09 08:12:39;;;;;;;21.83;13.87;;;;;;;;;;5035257;28;20235;-74
2022/03/09 08:15:10;;;;;;;19.70;13.27;;;;;;;;;;5038229;28;20231;-74
2022/03/09 08:17:38;;;;;;;18.67;13.60;;;;;;;;;;5038144;28;20286;-74
2022/03/09 08:20:06;;;;;;;23.23;13.53;;;;;;;;;;5031872;28;20679;-74
2022/03/09 08:22:34;;;;;;;22.67;13.70;;;;;;;;;;5038358;28;20204;-74
2022/03/09 08:25:03;;;;;;;21.10;14.43;;;;;;;;;;5038625;28;20230;-74
2022/03/09 08:27:33;;;;;;;22.07;14.30;;;;;;;;;;5040132;28;20207;-74
2022/03/09 08:30:01;;;;;;;21.53;12.07;;;;;;;;;;5039068;28;20227;-74
2022/03/09 08:32:29;;;;;;;20.27;13.03;;;;;;;;;;5038233;28;20253;-74
2022/03/09 08:34:57;;;;;;;28.43;12.83;;;;;;;;;;5037965;28;20762;-73
2022/03/09 08:37:25;;;;;;;17.70;12.20;;;;;;;;;;5033486;28;20692;-74
2022/03/09 08:39:53;;;;;;;25.07;11.90;;;;;;;;;;5037966;28;20238;-74
2022/03/09 08:42:21;;;;;;;16.90;10.87;;;;;;;;;;5045488;28;20199;-74
2022/03/09 08:44:51;;;;;;;17.20;11.43;;;;;;;;;;5034325;28;20207;-74
2022/03/09 08:47:19;;;;;;;19.80;11.73;;;;;;;;;;5042629;28;20673;-74
2022/03/09 08:49:48;;;;;;;14.33;10.53;;;;;;;;;;5030439;28;20270;-74
2022/03/09 08:52:16;;;;;;;18.30;10.47;;;;;;;;;;5032648;28;20241;-74
2022/03/09 08:54:44;;;;;;;22.50;12.07;;;;;;;;;;5037999;28;20208;-74
2022/03/09 08:57:13;;;;;;;18.80;12.07;;;;;;;;;;5037715;28;20953;-74
2022/03/09 08:59:43;;;;;;;18.37;12.23;;;;;;;;;;5029982;28;20203;-74
2022/03/09 09:02:12;;;;;;;19.93;11.73;;;;;;;;;;5037323;28;20238;-74
2022/03/09 09:04:40;;;;;;;18.13;11.00;;;;;;;;;;5037364;28;20204;-74
2022/03/09 09:07:09;;;;;;;19.63;11.90;;;;;;;;;;5037007;28;20654;-74
2022/03/09 09:09:37;;;;;;;19.70;11.90;;;;;;;;;;5036879;28;20302;-73
2022/03/09 09:12:05;;;;;;;20.90;12.00;;;;;;;;;;5037957;28;20232;-73
2022/03/09 09:14:33;;;;;;;17.73;11.80;;;;;;;;;;5036533;28;20318;-73
2022/03/09 09:17:02;;;;;;;21.70;11.90;;;;;;;;;;5035519;28;20227;-75
2022/03/09 09:19:46;;;;;;;15.87;10.10;;;;;;;;;;5037036;28;20249;-74
2022/03/09 09:22:14;;;;;;;17.40;11.53;;;;;;;;;;5034575;28;20207;-72
2022/03/09 09:24:43;;;;;;;81.33;22.23;;;;;;;;;;5033920;28;20220;-73
2022/03/09 09:27:11;;;;;;;41.47;16.03;;;;;;;;;;5037298;28;20319;-73
2022/03/09 09:29:59;;;;;;;21.67;11.77;;;;;;;;;;5033378;28;20987;-71
2022/03/09 09:32:32;;;;;;;17.80;10.80;;;;;;;;;;5036993;28;20203;-72
2022/03/09 09:35:02;;;;;;;14.03;9.60;;;;;;;;;;5037126;28;20238;-71
2022/03/09 09:37:30;;;;;;;17.83;11.27;;;;;;;;;;5032022;28;20204;-73
2022/03/09 09:39:58;;;;;;;16.73;10.27;;;;;;;;;;5029546;28;20223;-73
2022/03/09 09:42:30;;;;;;;13.27;10.10;;;;;;;;;;5033287;28;20645;-72
2022/03/09 09:45:18;;;;;;;14.30;10.10;;;;;;;;;;5035543;28;20258;-73
2022/03/09 09:47:49;;;;;;;11.73;9.30;;;;;;;;;;5036760;28;20211;-72
2022/03/09 09:50:19;;;;;;;17.40;10.17;;;;;;;;;;5040235;28;20687;-73
2022/03/09 09:52:47;;;;;;;18.33;9.93;;;;;;;;;;5037103;28;20651;-73
2022/03/09 09:55:15;;;;;;;14.67;10.17;;;;;;;;;;5036941;28;20769;-73
2022/03/09 09:57:46;;;;;;;16.37;9.40;;;;;;;;;;5036067;28;20239;-73
2022/03/09 10:00:15;;;;;;;12.13;9.10;;;;;;;;;;5036191;28;20608;-72
2022/03/09 10:02:43;;;;;;;19.83;9.57;;;;;;;;;;5029831;28;20215;-68
2022/03/09 10:05:12;;;;;;;14.47;9.37;;;;;;;;;;5035854;28;20234;-74
2022/03/09 10:07:54;;;;;;;16.70;10.17;;;;;;;;;;5036191;28;20386;-73
2022/03/09 10:10:24;;;;;;;12.80;9.40;;;;;;;;;;5033990;28;20306;-74
2022/03/09 10:12:52;;;;;;;13.23;8.73;;;;;;;;;;5032490;28;20314;-74
2022/03/09 10:15:20;;;;;;;13.60;9.17;;;;;;;;;;5035236;28;20311;-73
2022/03/09 10:17:48;;;;;;;14.30;9.80;;;;;;;;;;5033371;28;20328;-74
2022/03/09 10:20:23;;;;;;;14.93;9.30;;;;;;;;;;5036229;28;20234;-74
2022/03/09 10:22:51;;;;;;;14.00;9.47;;;;;;;;;;5036040;28;20235;-73
2022/03/09 10:25:23;;;;;;;18.20;10.10;;;;;;;;;;5028675;28;20223;-74
2022/03/09 10:27:54;;;;;;;18.13;9.77;;;;;;;;;;5035322;28;20208;-73
2022/03/09 10:30:23;;;;;;;13.40;9.20;;;;;;;;;;5028296;28;20231;-73
2022/03/09 10:32:53;;;;;;;13.20;9.50;;;;;;;;;;5033771;28;20287;-73
2022/03/09 10:35:40;;;;;;;13.57;8.60;;;;;;;;;;5031165;28;20734;-73
2022/03/09 10:38:09;;;;;;;16.30;9.47;;;;;;;;;;5034816;28;20238;-73
2022/03/09 10:40:41;;;;;;;16.13;9.43;;;;;;;;;;5035884;28;20196;-73
2022/03/09 10:43:14;;;;;;;16.73;10.10;;;;;;;;;;5030891;28;20286;-73
2022/03/09 10:45:57;;;;;;;13.70;8.93;;;;;;;;;;5034477;28;20274;-72
2022/03/09 10:48:25;;;;;;;13.50;8.17;;;;;;;;;;5032133;28;20757;-73
2022/03/09 10:50:54;;;;;;;12.63;8.93;;;;;;;;;;5034360;28;20223;-73
2022/03/09 10:53:22;;;;;;;10.53;8.17;;;;;;;;;;5031987;28;20606;-73
2022/03/09 10:55:50;;;;;;;13.20;8.57;;;;;;;;;;5034276;28;20314;-72
2022/03/09 10:58:21;;;;;;;15.37;8.53;;;;;;;;;;5035581;28;20241;-73
2022/03/09 11:00:50;;;;;;;12.47;7.37;;;;;;;;;;5035316;28;20222;-73
2022/03/09 11:03:19;;;;;;;12.47;8.90;;;;;;;;;;5033339;28;20203;-73
2022/03/09 11:05:49;;;;;;;11.67;8.30;;;;;;;;;;5034228;28;20227;-72
2022/03/09 11:08:17;;;;;;;16.40;8.20;;;;;;;;;;5030908;28;20672;-75
2022/03/09 11:10:45;;;;;;;12.27;8.13;;;;;;;;;;5033555;28;20661;-74
2022/03/09 11:13:14;;;;;;;12.47;7.60;;;;;;;;;;5030698;28;20263;-74
2022/03/09 11:15:47;;;;;;;13.77;7.13;;;;;;;;;;5031045;28;20274;-74
2022/03/09 11:18:18;;;;;;;11.07;7.90;;;;;;;;;;5031020;28;20206;-74
2022/03/09 11:20:46;;;;;;;11.87;7.90;;;;;;;;;;5032434;28;20342;-73
2022/03/09 11:23:19;;;;;;;12.27;7.67;;;;;;;;;;5032560;28;20675;-74
2022/03/09 11:25:50;;;;;;;9.97;7.00;;;;;;;;;;5037558;28;20258;-73
2022/03/09 11:28:23;;;;;;;11.13;7.47;;;;;;;;;;5039086;28;20215;-74
2022/03/09 11:30:57;;;;;;;9.57;7.47;;;;;;;;;;5039937;28;20282;-74
2022/03/09 11:33:41;;;;;;;9.20;6.73;;;;;;;;;;5034392;28;20231;-74
2022/03/09 11:36:30;;;;;;;10.07;6.87;;;;;;;;;;5039258;28;20263;-72
2022/03/09 11:39:17;;;;;;;8.60;6.77;;;;;;;;;;5039371;28;20234;-75
2022/03/09 11:41:46;;;;;;;8.00;6.13;;;;;;;;;;5037581;28;20206;-75
2022/03/09 11:44:30;;;;;;;9.83;6.33;;;;;;;;;;5038621;28;20250;-76
2022/03/09 11:47:04;;;;;;;9.80;6.83;;;;;;;;;;5039320;28;20274;-76
2022/03/09 11:49:33;;;;;;;10.03;7.07;;;;;;;;;;5031200;28;20662;-74
2022/03/09 11:52:08;;;;;;;8.87;6.43;;;;;;;;;;5038631;28;20251;-72
2022/03/09 11:54:43;;;;;;;12.13;7.20;;;;;;;;;;5038843;28;20282;-73
2022/03/09 11:57:11;;;;;;;12.27;7.30;;;;;;;;;;5036937;28;20243;-76
2022/03/09 12:00:03;;;;;;;10.23;6.93;;;;;;;;;;5035609;28;20207;-75
2022/03/09 12:02:42;;;;;;;8.10;5.90;;;;;;;;;;5037195;28;20290;-75
2022/03/09 12:05:31;;;;;;;8.17;5.93;;;;;;;;;;5035594;28;20234;-75
2022/03/09 12:08:00;;;;;;;8.90;6.83;;;;;;;;;;5032507;28;20295;-75
2022/03/09 12:10:44;;;;;;;10.20;6.77;;;;;;;;;;5038146;28;20204;-76
2022/03/09 12:13:15;;;;;;;7.30;5.77;;;;;;;;;;5037915;28;20227;-76
2022/03/09 12:16:02;;;;;;;7.10;5.30;;;;;;;;;;5035881;28;20223;-75
2022/03/09 12:18:35;;;;;;;9.87;6.27;;;;;;;;;;5038252;28;20711;-75
2022/03/09 12:21:05;;;;;;;8.43;5.47;;;;;;;;;;5030396;28;20204;-75
2022/03/09 12:23:34;;;;;;;10.50;6.30;;;;;;;;;;5035382;28;20231;-75
2022/03/09 12:26:05;;;;;;;9.17;5.77;;;;;;;;;;5035520;28;20239;-75
2022/03/09 12:28:46;;;;;;;6.80;5.20;;;;;;;;;;5042543;28;20211;-76
2022/03/09 12:31:19;;;;;;;5.50;4.60;;;;;;;;;;5037970;28;20302;-76
2022/03/09 12:33:54;;;;;;;7.23;4.80;;;;;;;;;;5031688;28;20269;-74
2022/03/09 12:36:24;;;;;;;10.13;5.40;;;;;;;;;;5037176;28;20325;-72
2022/03/09 12:38:57;;;;;;;8.07;6.33;;;;;;;;;;5038388;28;20265;-75
2022/03/09 12:41:27;;;;;;;7.43;5.17;;;;;;;;;;5038347;28;20211;-75
2022/03/09 12:43:56;;;;;;;6.33;4.70;;;;;;;;;;5034580;28;20585;-74
2022/03/09 12:46:27;;;;;;;7.57;5.03;;;;;;;;;;5036110;28;20231;-73
2022/03/09 12:49:04;;;;;;;8.57;4.53;;;;;;;;;;5034846;28;20230;-74
2022/03/09 12:51:34;;;;;;;5.63;4.10;;;;;;;;;;5034703;28;20238;-75
2022/03/09 12:54:42;;;;;;;5.63;4.60;;;;;;;;;;5037652;28;20211;-76
2022/03/09 12:57:12;;;;;;;5.40;4.30;;;;;;;;;;5037603;28;20699;-76
2022/03/09 12:59:41;;;;;;;6.10;5.37;;;;;;;;;;5034732;28;20718;-76
2022/03/09 13:02:09;;;;;;;4.83;4.20;;;;;;;;;;5038121;28;20686;-76
2022/03/09 13:04:39;;;;;;;4.93;4.33;;;;;;;;;;5037003;28;20200;-76
2022/03/09 13:07:11;;;;;;;8.27;4.33;;;;;;;;;;5031218;28;20306;-76
2022/03/09 13:09:41;;;;;;;5.70;4.90;;;;;;;;;;5037801;28;20273;-76
2022/03/09 13:12:10;;;;;;;5.37;4.23;;;;;;;;;;5037287;28;20251;-76
2022/03/09 13:14:41;;;;;;;5.23;4.03;;;;;;;;;;5034619;28;20283;-76
2022/03/09 13:17:10;;;;;;;4.83;3.93;;;;;;;;;;5033202;28;20224;-74
2022/03/09 13:19:40;;;;;;;6.40;4.73;;;;;;;;;;5037220;28;20230;-74
2022/03/09 13:22:08;;;;;;;8.70;5.10;;;;;;;;;;5037229;28;20223;-76
2022/03/09 13:24:37;;;;;;;8.03;4.30;;;;;;;;;;5037436;28;20227;-76
2022/03/09 13:27:16;;;;;;;6.63;4.47;;;;;;;;;;5033598;28;20228;-76
2022/03/09 13:29:45;;;;;;;7.57;3.80;;;;;;;;;;5036993;28;20753;-76
2022/03/09 13:32:29;;;;;;;4.97;4.10;;;;;;;;;;5036688;28;20250;-74
2022/03/09 13:34:59;;;;;;;6.53;3.93;;;;;;;;;;5037399;28;20210;-76
2022/03/09 13:37:37;;;;;;;5.40;3.97;;;;;;;;;;5030068;28;20629;-76
2022/03/09 13:40:07;;;;;;;5.73;4.07;;;;;;;;;;5036669;28;20254;-76
2022/03/09 13:42:37;;;;;;;4.80;4.23;;;;;;;;;;5036162;28;20650;-76
2022/03/09 13:45:06;;;;;;;5.37;3.90;;;;;;;;;;5035640;28;20195;-76
2022/03/09 13:47:51;;;;;;;4.93;3.80;;;;;;;;;;5036284;28;20229;-76
2022/03/09 13:50:22;;;;;;;4.93;4.07;;;;;;;;;;5037160;28;20208;-75
2022/03/09 13:52:56;;;;;;;4.00;3.30;;;;;;;;;;5033674;28;20224;-73
2022/03/09 13:55:28;;;;;;;7.60;3.77;;;;;;;;;;5036893;28;20265;-76
2022/03/09 13:58:00;;;;;;;4.73;3.63;;;;;;;;;;5024773;28;20291;-76
2022/03/09 14:00:30;;;;;;;4.97;4.00;;;;;;;;;;5036093;28;20230;-76
2022/03/09 14:03:07;;;;;;;3.53;3.00;;;;;;;;;;5033057;28;20199;-76
2022/03/09 14:05:38;;;;;;;4.67;3.73;;;;;;;;;;5036125;28;20226;-76
2022/03/09 14:08:08;;;;;;;5.03;3.43;;;;;;;;;;5036681;28;20611;-75
2022/03/09 14:10:37;;;;;;;5.47;4.10;;;;;;;;;;5032797;28;20227;-76
2022/03/09 14:13:10;;;;;;;4.97;3.70;;;;;;;;;;5031372;28;20640;-77
2022/03/09 14:15:38;;;;;;;4.70;4.20;;;;;;;;;;5032504;28;20310;-76
2022/03/09 14:18:07;;;;;;;4.43;3.53;;;;;;;;;;5032791;28;20283;-76
2022/03/09 14:20:39;;;;;;;5.53;4.20;;;;;;;;;;5036101;28;20200;-77
2022/03/09 14:23:07;;;;;;;5.10;4.10;;;;;;;;;;5036221;28;20230;-76
2022/03/09 14:25:37;;;;;;;5.30;4.00;;;;;;;;;;5036278;28;20307;-76
2022/03/09 14:28:05;;;;;;;4.60;3.90;;;;;;;;;;5031390;28;20570;-76
2022/03/09 14:30:33;;;;;;;5.80;4.47;;;;;;;;;;5033694;28;20643;-76
2022/03/09 14:33:01;;;;;;;8.57;4.90;;;;;;;;;;5036031;28;20733;-76
2022/03/09 14:35:29;;;;;;;4.90;4.03;;;;;;;;;;5034094;28;20250;-76
2022/03/09 14:37:58;;;;;;;5.00;4.40;;;;;;;;;;5036445;28;20242;-76
2022/03/09 14:40:28;;;;;;;8.47;4.77;;;;;;;;;;5036463;28;20234;-76
2022/03/09 14:42:56;;;;;;;6.73;5.00;;;;;;;;;;5026423;28;20250;-76